sensor_id;sensor_type;location;lat;lon;timestamp;P1;durP1;ratioP1;P2;durP2;ratioP2
43962;SDS011;29622;45.534;9.242;2022-09-09T00:02:28;7.38;;;5.28;;
43962;SDS011;29622;45.534;9.242;2022-09-09T00:18:23;12.10;;;6.70;;
43962;SDS011;29622;45.534;9.242;2022-09-09T00:23:32;9.38;;;6.10;;
43962;SDS011;29622;45.534;9.242;2022-09-09T00:28:55;15.27;;;7.18;;
43962;SDS011;29622;45.534;9.242;2022-09-09T00:34:14;12.40;;;6.43;;
43962;SDS011;29622;45.534;9.242;2022-09-09T00:39:25;8.25;;;5.32;;
43962;SDS011;29622;45.534;9.242;2022-09-09T00:44:37;14.00;;;5.93;;
43962;SDS011;29622;45.534;9.242;2022-09-09T01:00:44;13.27;;;7.72;;
43962;SDS011;29622;45.534;9.242;2022-09-09T01:06:00;14.80;;;9.05;;
43962;SDS011;29622;45.534;9.242;2022-09-09T01:11:16;13.35;;;8.05;;
43962;SDS011;29622;45.534;9.242;2022-09-09T01:16:26;12.60;;;7.30;;
43962;SDS011;29622;45.534;9.242;2022-09-09T01:21:42;15.13;;;6.88;;
43962;SDS011;29622;45.534;9.242;2022-09-09T01:26:58;15.60;;;8.90;;
43962;SDS011;29622;45.534;9.242;2022-09-09T01:37:40;13.32;;;7.95;;
43962;SDS011;29622;45.534;9.242;2022-09-09T01:42:42;14.10;;;8.20;;
43962;SDS011;29622;45.534;9.242;2022-09-09T01:47:43;19.40;;;9.00;;
43962;SDS011;29622;45.534;9.242;2022-09-09T01:53:05;18.40;;;9.80;;
43962;SDS011;29622;45.534;9.242;2022-09-09T02:03:28;19.67;;;9.18;;
43962;SDS011;29622;45.534;9.242;2022-09-09T02:08:44;16.92;;;8.38;;
43962;SDS011;29622;45.534;9.242;2022-09-09T02:13:51;15.02;;;7.60;;
43962;SDS011;29622;45.534;9.242;2022-09-09T02:24:24;15.88;;;8.63;;
43962;SDS011;29622;45.534;9.242;2022-09-09T02:29:38;14.98;;;8.48;;
43962;SDS011;29622;45.534;9.242;2022-09-09T02:34:47;17.23;;;9.02;;
43962;SDS011;29622;45.534;9.242;2022-09-09T02:39:52;12.77;;;7.80;;
43962;SDS011;29622;45.534;9.242;2022-09-09T02:44:55;17.13;;;7.70;;
43962;SDS011;29622;45.534;9.242;2022-09-09T02:55:06;17.10;;;8.15;;
43962;SDS011;29622;45.534;9.242;2022-09-09T03:00:26;14.45;;;7.07;;
43962;SDS011;29622;45.534;9.242;2022-09-09T03:05:31;14.32;;;7.00;;
43962;SDS011;29622;45.534;9.242;2022-09-09T03:10:32;20.30;;;7.55;;
43962;SDS011;29622;45.534;9.242;2022-09-09T03:15:34;13.27;;;7.82;;
43962;SDS011;29622;45.534;9.242;2022-09-09T03:20:35;18.45;;;8.75;;
43962;SDS011;29622;45.534;9.242;2022-09-09T03:25:36;17.98;;;9.52;;
43962;SDS011;29622;45.534;9.242;2022-09-09T03:30:39;26.55;;;12.25;;
43962;SDS011;29622;45.534;9.242;2022-09-09T03:35:44;20.63;;;12.20;;
43962;SDS011;29622;45.534;9.242;2022-09-09T03:40:48;22.25;;;13.10;;
43962;SDS011;29622;45.534;9.242;2022-09-09T03:45:51;25.80;;;14.00;;
43962;SDS011;29622;45.534;9.242;2022-09-09T03:50:54;21.67;;;13.60;;
43962;SDS011;29622;45.534;9.242;2022-09-09T03:56:00;23.10;;;12.88;;
43962;SDS011;29622;45.534;9.242;2022-09-09T04:06:08;21.92;;;13.68;;
43962;SDS011;29622;45.534;9.242;2022-09-09T04:11:11;23.45;;;13.23;;
43962;SDS011;29622;45.534;9.242;2022-09-09T04:16:12;28.08;;;13.55;;
43962;SDS011;29622;45.534;9.242;2022-09-09T04:21:14;25.55;;;14.40;;
43962;SDS011;29622;45.534;9.242;2022-09-09T04:26:16;21.10;;;14.23;;
43962;SDS011;29622;45.534;9.242;2022-09-09T04:31:19;22.23;;;12.20;;
43962;SDS011;29622;45.534;9.242;2022-09-09T04:36:24;21.25;;;12.80;;
43962;SDS011;29622;45.534;9.242;2022-09-09T04:41:31;29.77;;;13.85;;
43962;SDS011;29622;45.534;9.242;2022-09-09T04:46:32;23.27;;;14.60;;
43962;SDS011;29622;45.534;9.242;2022-09-09T04:51:34;20.42;;;13.30;;
43962;SDS011;29622;45.534;9.242;2022-09-09T04:56:35;22.55;;;11.77;;
43962;SDS011;29622;45.534;9.242;2022-09-09T05:01:36;25.70;;;15.77;;
43962;SDS011;29622;45.534;9.242;2022-09-09T05:06:39;28.73;;;14.65;;
43962;SDS011;29622;45.534;9.242;2022-09-09T05:11:40;20.33;;;13.10;;
43962;SDS011;29622;45.534;9.242;2022-09-09T05:16:50;24.00;;;14.05;;
43962;SDS011;29622;45.534;9.242;2022-09-09T05:21:51;20.25;;;12.90;;
43962;SDS011;29622;45.534;9.242;2022-09-09T05:26:57;23.98;;;14.00;;
43962;SDS011;29622;45.534;9.242;2022-09-09T05:32:00;17.80;;;7.63;;
43962;SDS011;29622;45.534;9.242;2022-09-09T05:37:01;12.88;;;5.68;;
43962;SDS011;29622;45.534;9.242;2022-09-09T05:42:01;4.50;;;2.97;;
43962;SDS011;29622;45.534;9.242;2022-09-09T05:47:04;3.47;;;2.05;;
43962;SDS011;29622;45.534;9.242;2022-09-09T05:52:05;6.30;;;2.15;;
43962;SDS011;29622;45.534;9.242;2022-09-09T05:57:06;5.93;;;1.60;;
43962;SDS011;29622;45.534;9.242;2022-09-09T06:02:08;4.07;;;0.93;;
43962;SDS011;29622;45.534;9.242;2022-09-09T06:07:10;15.48;;;3.70;;
43962;SDS011;29622;45.534;9.242;2022-09-09T06:12:11;6.40;;;1.77;;
43962;SDS011;29622;45.534;9.242;2022-09-09T06:17:12;5.25;;;1.40;;
43962;SDS011;29622;45.534;9.242;2022-09-09T06:22:13;4.82;;;1.73;;
43962;SDS011;29622;45.534;9.242;2022-09-09T06:27:15;3.85;;;1.73;;
43962;SDS011;29622;45.534;9.242;2022-09-09T06:32:16;5.43;;;1.75;;
43962;SDS011;29622;45.534;9.242;2022-09-09T06:37:18;5.53;;;2.03;;
43962;SDS011;29622;45.534;9.242;2022-09-09T06:42:22;8.40;;;2.45;;
43962;SDS011;29622;45.534;9.242;2022-09-09T06:47:23;4.60;;;1.75;;
43962;SDS011;29622;45.534;9.242;2022-09-09T06:52:25;3.95;;;1.80;;
43962;SDS011;29622;45.534;9.242;2022-09-09T06:57:27;6.65;;;1.80;;
43962;SDS011;29622;45.534;9.242;2022-09-09T07:02:28;3.60;;;1.25;;
43962;SDS011;29622;45.534;9.242;2022-09-09T07:07:28;6.28;;;1.58;;
43962;SDS011;29622;45.534;9.242;2022-09-09T07:12:30;5.60;;;2.20;;
43962;SDS011;29622;45.534;9.242;2022-09-09T07:17:33;8.40;;;2.05;;
43962;SDS011;29622;45.534;9.242;2022-09-09T07:22:34;5.95;;;2.20;;
43962;SDS011;29622;45.534;9.242;2022-09-09T07:27:36;4.60;;;1.85;;
43962;SDS011;29622;45.534;9.242;2022-09-09T07:32:38;2.88;;;1.23;;
43962;SDS011;29622;45.534;9.242;2022-09-09T07:37:40;6.55;;;2.50;;
43962;SDS011;29622;45.534;9.242;2022-09-09T07:42:41;3.55;;;1.23;;
43962;SDS011;29622;45.534;9.242;2022-09-09T07:47:42;2.90;;;1.55;;
43962;SDS011;29622;45.534;9.242;2022-09-09T07:52:43;3.58;;;1.52;;
43962;SDS011;29622;45.534;9.242;2022-09-09T07:57:44;8.25;;;2.28;;
43962;SDS011;29622;45.534;9.242;2022-09-09T08:02:46;3.42;;;1.25;;
43962;SDS011;29622;45.534;9.242;2022-09-09T08:07:46;3.72;;;1.17;;
43962;SDS011;29622;45.534;9.242;2022-09-09T08:12:48;4.45;;;1.52;;
43962;SDS011;29622;45.534;9.242;2022-09-09T08:17:49;6.63;;;1.95;;
43962;SDS011;29622;45.534;9.242;2022-09-09T08:22:50;5.63;;;1.33;;
43962;SDS011;29622;45.534;9.242;2022-09-09T08:27:52;3.50;;;1.08;;
43962;SDS011;29622;45.534;9.242;2022-09-09T08:32:54;2.90;;;1.35;;
43962;SDS011;29622;45.534;9.242;2022-09-09T08:37:56;2.50;;;0.68;;
43962;SDS011;29622;45.534;9.242;2022-09-09T08:42:57;3.92;;;0.77;;
43962;SDS011;29622;45.534;9.242;2022-09-09T08:53:06;11.55;;;1.58;;
43962;SDS011;29622;45.534;9.242;2022-09-09T08:58:17;4.85;;;1.10;;
43962;SDS011;29622;45.534;9.242;2022-09-09T09:14:14;1.17;;;0.60;;
43962;SDS011;29622;45.534;9.242;2022-09-09T09:19:24;2.10;;;0.82;;
43962;SDS011;29622;45.534;9.242;2022-09-09T09:29:50;1.77;;;0.63;;
43962;SDS011;29622;45.534;9.242;2022-09-09T09:34:55;2.28;;;0.88;;
43962;SDS011;29622;45.534;9.242;2022-09-09T09:40:12;3.22;;;1.15;;
43962;SDS011;29622;45.534;9.242;2022-09-09T09:45:16;2.90;;;0.68;;
43962;SDS011;29622;45.534;9.242;2022-09-09T09:50:30;4.35;;;1.27;;
43962;SDS011;29622;45.534;9.242;2022-09-09T09:55:32;7.20;;;0.82;;
43962;SDS011;29622;45.534;9.242;2022-09-09T10:00:36;2.83;;;0.80;;
43962;SDS011;29622;45.534;9.242;2022-09-09T10:05:53;6.28;;;0.80;;
43962;SDS011;29622;45.534;9.242;2022-09-09T10:32:30;1.45;;;0.60;;
43962;SDS011;29622;45.534;9.242;2022-09-09T10:42:37;2.70;;;0.70;;
43962;SDS011;29622;45.534;9.242;2022-09-09T10:53:19;1.98;;;0.73;;
43962;SDS011;29622;45.534;9.242;2022-09-09T10:58:33;5.75;;;0.80;;
43962;SDS011;29622;45.534;9.242;2022-09-09T11:03:41;4.30;;;1.08;;
43962;SDS011;29622;45.534;9.242;2022-09-09T11:08:43;18.77;;;1.85;;
43962;SDS011;29622;45.534;9.242;2022-09-09T11:18:53;6.00;;;1.17;;
43962;SDS011;29622;45.534;9.242;2022-09-09T11:24:03;4.32;;;1.60;;
43962;SDS011;29622;45.534;9.242;2022-09-09T11:29:16;3.95;;;0.98;;
43962;SDS011;29622;45.534;9.242;2022-09-09T11:45:24;2.72;;;0.95;;
43962;SDS011;29622;45.534;9.242;2022-09-09T11:50:30;14.57;;;1.25;;
43962;SDS011;29622;45.534;9.242;2022-09-09T11:55:35;4.00;;;1.33;;
43962;SDS011;29622;45.534;9.242;2022-09-09T12:05:47;3.85;;;0.90;;
43962;SDS011;29622;45.534;9.242;2022-09-09T12:10:58;7.78;;;2.25;;
43962;SDS011;29622;45.534;9.242;2022-09-09T12:16:03;2.35;;;1.20;;
43962;SDS011;29622;45.534;9.242;2022-09-09T12:31:46;3.60;;;1.23;;
43962;SDS011;29622;45.534;9.242;2022-09-09T12:37:13;8.45;;;1.90;;
43962;SDS011;29622;45.534;9.242;2022-09-09T12:42:19;4.82;;;0.85;;
43962;SDS011;29622;45.534;9.242;2022-09-09T12:47:22;4.47;;;1.17;;
43962;SDS011;29622;45.534;9.242;2022-09-09T12:52:28;2.78;;;1.20;;
43962;SDS011;29622;45.534;9.242;2022-09-09T12:57:34;8.30;;;1.63;;
43962;SDS011;29622;45.534;9.242;2022-09-09T13:02:44;4.20;;;1.27;;
43962;SDS011;29622;45.534;9.242;2022-09-09T13:07:50;7.65;;;1.30;;
43962;SDS011;29622;45.534;9.242;2022-09-09T13:12:51;3.00;;;1.08;;
43962;SDS011;29622;45.534;9.242;2022-09-09T13:17:53;2.08;;;0.82;;
43962;SDS011;29622;45.534;9.242;2022-09-09T13:22:55;3.92;;;1.20;;
43962;SDS011;29622;45.534;9.242;2022-09-09T13:27:58;3.38;;;1.30;;
43962;SDS011;29622;45.534;9.242;2022-09-09T13:33:17;2.45;;;1.00;;
43962;SDS011;29622;45.534;9.242;2022-09-09T13:38:22;4.90;;;1.42;;
43962;SDS011;29622;45.534;9.242;2022-09-09T13:43:29;2.40;;;1.08;;
43962;SDS011;29622;45.534;9.242;2022-09-09T13:48:53;5.97;;;1.20;;
43962;SDS011;29622;45.534;9.242;2022-09-09T13:54:14;5.40;;;1.23;;
43962;SDS011;29622;45.534;9.242;2022-09-09T13:59:17;4.05;;;1.00;;
43962;SDS011;29622;45.534;9.242;2022-09-09T14:04:19;5.20;;;1.10;;
43962;SDS011;29622;45.534;9.242;2022-09-09T14:09:23;5.60;;;1.20;;
43962;SDS011;29622;45.534;9.242;2022-09-09T14:14:23;4.55;;;1.13;;
43962;SDS011;29622;45.534;9.242;2022-09-09T14:19:25;5.28;;;1.40;;
43962;SDS011;29622;45.534;9.242;2022-09-09T14:24:26;2.10;;;1.10;;
43962;SDS011;29622;45.534;9.242;2022-09-09T14:29:27;2.75;;;1.15;;
43962;SDS011;29622;45.534;9.242;2022-09-09T14:34:28;1.25;;;0.88;;
43962;SDS011;29622;45.534;9.242;2022-09-09T14:39:29;3.15;;;0.82;;
43962;SDS011;29622;45.534;9.242;2022-09-09T14:44:29;3.38;;;1.48;;
43962;SDS011;29622;45.534;9.242;2022-09-09T14:49:30;2.50;;;1.27;;
43962;SDS011;29622;45.534;9.242;2022-09-09T14:54:31;4.78;;;1.20;;
43962;SDS011;29622;45.534;9.242;2022-09-09T14:59:32;2.03;;;0.95;;
43962;SDS011;29622;45.534;9.242;2022-09-09T15:04:34;2.97;;;1.17;;
43962;SDS011;29622;45.534;9.242;2022-09-09T15:09:35;3.33;;;1.17;;
43962;SDS011;29622;45.534;9.242;2022-09-09T15:14:37;6.97;;;1.20;;
43962;SDS011;29622;45.534;9.242;2022-09-09T15:19:38;2.55;;;0.90;;
43962;SDS011;29622;45.534;9.242;2022-09-09T15:24:39;3.28;;;1.23;;
43962;SDS011;29622;45.534;9.242;2022-09-09T15:29:40;2.95;;;1.08;;
43962;SDS011;29622;45.534;9.242;2022-09-09T15:34:41;5.65;;;1.20;;
43962;SDS011;29622;45.534;9.242;2022-09-09T15:39:42;4.88;;;1.85;;
43962;SDS011;29622;45.534;9.242;2022-09-09T15:44:43;3.97;;;0.90;;
43962;SDS011;29622;45.534;9.242;2022-09-09T15:49:44;2.70;;;1.05;;
43962;SDS011;29622;45.534;9.242;2022-09-09T15:54:44;4.05;;;1.10;;
43962;SDS011;29622;45.534;9.242;2022-09-09T15:59:45;3.38;;;1.05;;
43962;SDS011;29622;45.534;9.242;2022-09-09T16:04:46;3.50;;;1.10;;
43962;SDS011;29622;45.534;9.242;2022-09-09T16:09:46;4.53;;;1.20;;
43962;SDS011;29622;45.534;9.242;2022-09-09T16:14:47;7.20;;;2.45;;
43962;SDS011;29622;45.534;9.242;2022-09-09T16:19:48;3.55;;;1.45;;
43962;SDS011;29622;45.534;9.242;2022-09-09T16:24:49;3.10;;;1.10;;
43962;SDS011;29622;45.534;9.242;2022-09-09T16:29:49;3.70;;;1.20;;
43962;SDS011;29622;45.534;9.242;2022-09-09T16:34:50;19.52;;;2.53;;
43962;SDS011;29622;45.534;9.242;2022-09-09T16:39:50;5.50;;;0.98;;
43962;SDS011;29622;45.534;9.242;2022-09-09T16:44:51;4.63;;;1.08;;
43962;SDS011;29622;45.534;9.242;2022-09-09T16:49:52;8.65;;;1.30;;
43962;SDS011;29622;45.534;9.242;2022-09-09T16:54:53;4.75;;;1.10;;
43962;SDS011;29622;45.534;9.242;2022-09-09T16:59:53;2.88;;;1.02;;
43962;SDS011;29622;45.534;9.242;2022-09-09T17:04:55;4.88;;;1.17;;
43962;SDS011;29622;45.534;9.242;2022-09-09T17:09:56;6.30;;;1.20;;
43962;SDS011;29622;45.534;9.242;2022-09-09T17:14:57;6.95;;;1.67;;
43962;SDS011;29622;45.534;9.242;2022-09-09T17:20:00;2.65;;;0.90;;
43962;SDS011;29622;45.534;9.242;2022-09-09T17:25:02;5.43;;;1.67;;
43962;SDS011;29622;45.534;9.242;2022-09-09T17:30:03;3.72;;;1.13;;
43962;SDS011;29622;45.534;9.242;2022-09-09T17:35:04;2.92;;;1.08;;
43962;SDS011;29622;45.534;9.242;2022-09-09T17:40:06;3.58;;;1.20;;
43962;SDS011;29622;45.534;9.242;2022-09-09T17:45:07;7.93;;;1.58;;
43962;SDS011;29622;45.534;9.242;2022-09-09T17:50:08;3.20;;;1.13;;
43962;SDS011;29622;45.534;9.242;2022-09-09T17:55:13;4.18;;;1.38;;
43962;SDS011;29622;45.534;9.242;2022-09-09T18:00:13;5.30;;;1.20;;
43962;SDS011;29622;45.534;9.242;2022-09-09T18:05:17;3.45;;;1.20;;
43962;SDS011;29622;45.534;9.242;2022-09-09T18:10:18;4.10;;;1.05;;
43962;SDS011;29622;45.534;9.242;2022-09-09T18:15:18;4.03;;;1.30;;
43962;SDS011;29622;45.534;9.242;2022-09-09T18:20:19;5.03;;;2.10;;
43962;SDS011;29622;45.534;9.242;2022-09-09T18:25:21;3.75;;;1.52;;
43962;SDS011;29622;45.534;9.242;2022-09-09T18:30:21;6.00;;;1.70;;
43962;SDS011;29622;45.534;9.242;2022-09-09T18:35:22;4.82;;;1.52;;
43962;SDS011;29622;45.534;9.242;2022-09-09T18:40:23;4.15;;;1.38;;
43962;SDS011;29622;45.534;9.242;2022-09-09T18:45:24;4.22;;;2.15;;
43962;SDS011;29622;45.534;9.242;2022-09-09T18:50:25;4.30;;;1.77;;
43962;SDS011;29622;45.534;9.242;2022-09-09T18:55:26;7.22;;;1.95;;
43962;SDS011;29622;45.534;9.242;2022-09-09T19:00:28;3.58;;;1.70;;
43962;SDS011;29622;45.534;9.242;2022-09-09T19:05:29;5.90;;;1.80;;
43962;SDS011;29622;45.534;9.242;2022-09-09T19:10:30;6.28;;;2.15;;
43962;SDS011;29622;45.534;9.242;2022-09-09T19:15:35;7.80;;;1.95;;
43962;SDS011;29622;45.534;9.242;2022-09-09T19:20:36;8.27;;;2.00;;
43962;SDS011;29622;45.534;9.242;2022-09-09T19:25:37;6.03;;;1.88;;
43962;SDS011;29622;45.534;9.242;2022-09-09T19:30:38;6.65;;;2.45;;
43962;SDS011;29622;45.534;9.242;2022-09-09T19:35:38;8.18;;;2.05;;
43962;SDS011;29622;45.534;9.242;2022-09-09T19:40:39;10.07;;;1.92;;
43962;SDS011;29622;45.534;9.242;2022-09-09T19:45:39;5.85;;;2.05;;
43962;SDS011;29622;45.534;9.242;2022-09-09T19:50:40;5.22;;;1.90;;
43962;SDS011;29622;45.534;9.242;2022-09-09T19:55:42;7.75;;;2.17;;
43962;SDS011;29622;45.534;9.242;2022-09-09T20:00:43;7.25;;;2.10;;
43962;SDS011;29622;45.534;9.242;2022-09-09T20:05:44;6.80;;;2.13;;
43962;SDS011;29622;45.534;9.242;2022-09-09T20:10:51;4.97;;;2.03;;
43962;SDS011;29622;45.534;9.242;2022-09-09T20:16:00;13.48;;;5.43;;
43962;SDS011;29622;45.534;9.242;2022-09-09T20:21:12;17.60;;;3.90;;
43962;SDS011;29622;45.534;9.242;2022-09-09T20:26:18;6.00;;;2.42;;
43962;SDS011;29622;45.534;9.242;2022-09-09T20:31:24;7.38;;;2.20;;
43962;SDS011;29622;45.534;9.242;2022-09-09T20:36:27;4.97;;;2.30;;
43962;SDS011;29622;45.534;9.242;2022-09-09T20:41:31;8.48;;;2.85;;
43962;SDS011;29622;45.534;9.242;2022-09-09T20:46:34;10.50;;;1.90;;
43962;SDS011;29622;45.534;9.242;2022-09-09T20:51:36;7.38;;;2.47;;
43962;SDS011;29622;45.534;9.242;2022-09-09T20:56:38;13.07;;;2.97;;
43962;SDS011;29622;45.534;9.242;2022-09-09T21:01:40;9.20;;;2.70;;
43962;SDS011;29622;45.534;9.242;2022-09-09T21:06:40;5.15;;;2.50;;
43962;SDS011;29622;45.534;9.242;2022-09-09T21:11:41;11.27;;;3.25;;
43962;SDS011;29622;45.534;9.242;2022-09-09T21:16:42;10.05;;;2.72;;
43962;SDS011;29622;45.534;9.242;2022-09-09T21:21:43;6.57;;;2.80;;
43962;SDS011;29622;45.534;9.242;2022-09-09T21:26:45;11.40;;;3.30;;
43962;SDS011;29622;45.534;9.242;2022-09-09T21:31:46;7.30;;;2.80;;
43962;SDS011;29622;45.534;9.242;2022-09-09T21:36:46;6.82;;;2.92;;
43962;SDS011;29622;45.534;9.242;2022-09-09T21:41:47;14.32;;;3.75;;
43962;SDS011;29622;45.534;9.242;2022-09-09T21:46:48;8.52;;;3.03;;
43962;SDS011;29622;45.534;9.242;2022-09-09T21:51:48;5.25;;;2.58;;
43962;SDS011;29622;45.534;9.242;2022-09-09T21:56:49;7.78;;;2.70;;
43962;SDS011;29622;45.534;9.242;2022-09-09T22:01:53;6.97;;;2.78;;
43962;SDS011;29622;45.534;9.242;2022-09-09T22:06:54;7.65;;;2.38;;
43962;SDS011;29622;45.534;9.242;2022-09-09T22:11:54;4.30;;;2.20;;
43962;SDS011;29622;45.534;9.242;2022-09-09T22:16:55;6.00;;;2.53;;
43962;SDS011;29622;45.534;9.242;2022-09-09T22:21:56;6.35;;;2.28;;
43962;SDS011;29622;45.534;9.242;2022-09-09T22:26:56;5.60;;;2.08;;
43962;SDS011;29622;45.534;9.242;2022-09-09T22:31:57;8.20;;;2.40;;
43962;SDS011;29622;45.534;9.242;2022-09-09T22:36:58;5.25;;;2.13;;
43962;SDS011;29622;45.534;9.242;2022-09-09T22:42:01;7.68;;;2.30;;
43962;SDS011;29622;45.534;9.242;2022-09-09T22:47:02;6.68;;;2.00;;
43962;SDS011;29622;45.534;9.242;2022-09-09T22:52:03;5.70;;;1.80;;
43962;SDS011;29622;45.534;9.242;2022-09-09T22:57:03;3.10;;;1.30;;
43962;SDS011;29622;45.534;9.242;2022-09-09T23:02:05;2.60;;;1.20;;
43962;SDS011;29622;45.534;9.242;2022-09-09T23:07:05;4.78;;;2.20;;
43962;SDS011;29622;45.534;9.242;2022-09-09T23:12:07;3.95;;;1.60;;
43962;SDS011;29622;45.534;9.242;2022-09-09T23:17:09;7.93;;;2.22;;
43962;SDS011;29622;45.534;9.242;2022-09-09T23:22:09;4.82;;;1.45;;
43962;SDS011;29622;45.534;9.242;2022-09-09T23:27:11;11.90;;;2.70;;
43962;SDS011;29622;45.534;9.242;2022-09-09T23:32:12;6.90;;;1.60;;
43962;SDS011;29622;45.534;9.242;2022-09-09T23:37:14;6.10;;;2.83;;
43962;SDS011;29622;45.534;9.242;2022-09-09T23:42:16;8.43;;;2.17;;
43962;SDS011;29622;45.534;9.242;2022-09-09T23:47:16;2.92;;;1.90;;
43962;SDS011;29622;45.534;9.242;2022-09-09T23:52:17;5.57;;;1.90;;
43962;SDS011;29622;45.534;9.242;2022-09-09T23:57:18;6.07;;;2.10;;
